Time;durP1;ratioP1;P1;durP2;ratioP2;P2;SDS_P1;SDS_P2;PMS_P1;PMS_P2;Temp;Humidity;BMP_temperature;BMP_pressure;BME280_temperature;BME280_humidity;BME280_pressure;Samples;Min_cycle;Max_cycle;Signal;HPM_P1;HPM_P2
2021/03/12 00:00:41;;;;;;;9.33;2.50;;;11.90;99.90;;;;;;4972689;28;20788;-81
2021/03/12 00:03:08;;;;;;;12.47;4.07;;;11.90;99.90;;;;;;4972530;28;20221;-78
2021/03/12 00:05:35;;;;;;;5.03;3.43;;;11.90;99.90;;;;;;4972708;28;20221;-79
2021/03/12 00:08:03;;;;;;;10.32;2.83;;;11.90;99.90;;;;;;4972210;28;20272;-78
2021/03/12 00:10:29;;;;;;;10.63;3.27;;;11.80;99.90;;;;;;4972834;28;20221;-80
2021/03/12 00:12:56;;;;;;;7.87;3.67;;;11.80;99.90;;;;;;4971714;28;20209;-77
2021/03/12 00:15:22;;;;;;;11.63;3.70;;;11.80;99.90;;;;;;4972452;28;20595;-83
2021/03/12 00:17:50;;;;;;;12.83;3.20;;;11.80;99.90;;;;;;4972205;28;20210;-78
2021/03/12 00:20:19;;;;;;;14.18;3.33;;;11.90;99.90;;;;;;4972729;28;20229;-75
2021/03/12 00:22:46;;;;;;;10.88;2.55;;;11.90;99.90;;;;;;4972442;28;20213;-77
2021/03/12 00:25:18;;;;;;;13.83;3.37;;;11.90;99.90;;;;;;4971798;28;20751;-79
2021/03/12 00:27:44;;;;;;;10.07;3.10;;;11.80;99.90;;;;;;4971624;28;20205;-76
2021/03/12 00:30:12;;;;;;;11.30;2.47;;;11.90;99.90;;;;;;4971509;28;20210;-80
2021/03/12 00:32:39;;;;;;;15.10;3.10;;;11.80;99.90;;;;;;4971996;28;20213;-77
2021/03/12 00:35:07;;;;;;;6.85;2.50;;;11.90;99.90;;;;;;4971529;28;20213;-77
2021/03/12 00:37:35;;;;;;;7.63;3.70;;;11.80;99.90;;;;;;4971939;28;20214;-76
2021/03/12 00:40:02;;;;;;;6.75;2.78;;;11.80;99.90;;;;;;4971694;28;20241;-81
2021/03/12 00:42:29;;;;;;;8.70;3.00;;;11.70;99.90;;;;;;4971959;28;20205;-79
2021/03/12 00:44:56;;;;;;;9.07;2.47;;;11.70;99.90;;;;;;4971523;28;20217;-81
2021/03/12 00:47:22;;;;;;;11.77;3.17;;;11.70;99.90;;;;;;4971874;28;20225;-76
2021/03/12 00:49:49;;;;;;;6.60;2.42;;;11.80;99.90;;;;;;4973979;28;20209;-73
2021/03/12 00:52:15;;;;;;;9.50;3.10;;;11.70;99.90;;;;;;4972412;28;20213;-78
2021/03/12 00:54:42;;;;;;;7.93;2.63;;;11.70;99.90;;;;;;4972272;28;20205;-81
2021/03/12 00:57:08;;;;;;;12.33;3.27;;;11.70;99.90;;;;;;4971565;28;20250;-76
2021/03/12 00:59:35;;;;;;;5.87;2.60;;;11.60;99.90;;;;;;4971529;28;20747;-74
2021/03/12 01:02:02;;;;;;;12.20;3.23;;;11.60;99.90;;;;;;4971605;28;20209;-77
2021/03/12 01:04:28;;;;;;;12.87;3.07;;;11.60;99.90;;;;;;4971677;28;20252;-79
2021/03/12 01:06:55;;;;;;;9.07;2.37;;;11.60;99.90;;;;;;4971683;28;20205;-78
2021/03/12 01:09:21;;;;;;;8.03;3.27;;;11.60;99.90;;;;;;4971761;28;20209;-78
2021/03/12 01:11:48;;;;;;;7.43;2.23;;;11.60;99.90;;;;;;4972148;28;20205;-79
2021/03/12 01:14:14;;;;;;;9.20;4.13;;;11.60;99.90;;;;;;4971549;28;20210;-75
2021/03/12 01:16:42;;;;;;;10.50;2.70;;;11.60;99.90;;;;;;4971532;28;20210;-78
2021/03/12 01:19:08;;;;;;;12.00;3.60;;;11.60;99.90;;;;;;4971080;28;20213;-79
2021/03/12 01:21:35;;;;;;;8.20;2.37;;;11.50;99.90;;;;;;4971476;28;20210;-76
2021/03/12 01:24:01;;;;;;;10.18;2.10;;;11.50;99.90;;;;;;4971226;28;20213;-73
2021/03/12 01:26:28;;;;;;;7.83;1.93;;;11.40;99.90;;;;;;4971191;28;20213;-80
2021/03/12 01:28:55;;;;;;;9.70;3.20;;;11.40;99.90;;;;;;4970077;28;20212;-77
2021/03/12 01:31:21;;;;;;;6.60;2.30;;;11.40;99.90;;;;;;4970849;28;20213;-76
2021/03/12 01:33:49;;;;;;;4.87;1.90;;;11.40;99.90;;;;;;4969642;28;20213;-77
2021/03/12 01:36:15;;;;;;;5.67;1.27;;;11.40;99.90;;;;;;4971431;28;20209;-76
2021/03/12 01:38:41;;;;;;;5.10;1.93;;;11.40;99.90;;;;;;4970799;28;20229;-75
2021/03/12 01:41:08;;;;;;;12.13;2.20;;;11.40;99.90;;;;;;4974434;28;20714;-74
2021/03/12 01:43:34;;;;;;;10.03;2.67;;;11.30;99.90;;;;;;4975053;28;20213;-77
2021/03/12 01:46:01;;;;;;;8.73;2.10;;;11.30;99.90;;;;;;4974662;28;20220;-76
2021/03/12 01:48:27;;;;;;;7.17;2.13;;;11.40;99.90;;;;;;4974837;28;20209;-74
2021/03/12 01:50:57;;;;;;;10.53;2.77;;;11.40;99.90;;;;;;4974272;28;20213;-75
2021/03/12 01:53:25;;;;;;;8.70;2.27;;;11.40;99.90;;;;;;4975001;28;20213;-74
2021/03/12 01:55:52;;;;;;;12.03;2.93;;;11.30;99.90;;;;;;4974306;28;20264;-73
2021/03/12 01:58:19;;;;;;;8.83;2.37;;;11.20;99.90;;;;;;4974771;28;20224;-73
2021/03/12 02:00:47;;;;;;;8.00;2.13;;;11.20;99.90;;;;;;4974624;28;20234;-76
2021/03/12 02:03:16;;;;;;;9.60;2.67;;;11.20;99.90;;;;;;4974738;28;20212;-75
2021/03/12 02:05:43;;;;;;;7.33;2.50;;;11.20;99.90;;;;;;4974644;28;20206;-76
2021/03/12 02:08:11;;;;;;;13.57;4.13;;;11.20;99.90;;;;;;4974372;28;20268;-75
2021/03/12 02:10:38;;;;;;;9.77;3.07;;;11.10;99.90;;;;;;4974316;28;20217;-75
2021/03/12 02:13:10;;;;;;;10.37;3.20;;;11.00;99.90;;;;;;4974048;28;20596;-77
2021/03/12 02:15:42;;;;;;;11.93;3.37;;;11.10;99.90;;;;;;4974365;28;20657;-76
2021/03/12 02:18:15;;;;;;;8.23;2.63;;;11.00;99.90;;;;;;4974159;28;20299;-81
2021/03/12 02:20:51;;;;;;;8.73;3.10;;;11.00;99.90;;;;;;4974188;28;20232;-79
2021/03/12 02:23:31;;;;;;;11.07;3.10;;;10.90;99.90;;;;;;4974404;28;20241;-79
2021/03/12 02:26:02;;;;;;;12.53;3.43;;;10.80;99.90;;;;;;4974014;28;20243;-83
2021/03/12 02:28:31;;;;;;;9.20;3.30;;;10.80;99.90;;;;;;4974523;28;20212;-83
2021/03/12 02:30:59;;;;;;;11.27;3.73;;;10.80;99.90;;;;;;4974144;28;20216;-79
2021/03/12 02:33:28;;;;;;;11.63;4.03;;;10.80;99.90;;;;;;4974081;28;20213;-80
2021/03/12 02:35:55;;;;;;;8.47;2.50;;;10.80;99.90;;;;;;4973973;28;20210;-77
2021/03/12 02:38:24;;;;;;;11.80;3.47;;;10.80;99.90;;;;;;4973379;28;20220;-75
2021/03/12 02:40:52;;;;;;;21.57;5.47;;;10.70;99.90;;;;;;4973908;28;20225;-76
2021/03/12 02:43:20;;;;;;;17.57;3.73;;;10.80;99.90;;;;;;4974069;28;20213;-74
2021/03/12 02:45:48;;;;;;;13.33;3.37;;;10.70;99.90;;;;;;4974505;28;20228;-76
2021/03/12 02:48:15;;;;;;;15.10;4.10;;;10.70;99.90;;;;;;4973448;28;20220;-77
2021/03/12 02:50:42;;;;;;;16.33;3.47;;;10.70;99.90;;;;;;4972942;28;20210;-75
2021/03/12 02:53:09;;;;;;;12.50;3.10;;;10.70;99.90;;;;;;4973248;28;20217;-74
2021/03/12 02:55:37;;;;;;;13.33;3.07;;;10.60;99.90;;;;;;4973402;28;20592;-77
2021/03/12 02:58:05;;;;;;;11.43;3.73;;;10.70;99.90;;;;;;4973611;28;20297;-79
2021/03/12 03:00:32;;;;;;;7.50;2.60;;;10.70;99.90;;;;;;4973485;28;20230;-77
2021/03/12 03:03:00;;;;;;;8.27;2.80;;;10.70;99.90;;;;;;4973360;28;20210;-78
2021/03/12 03:05:29;;;;;;;6.60;2.73;;;10.70;99.90;;;;;;4973104;28;20210;-78
2021/03/12 03:07:56;;;;;;;9.37;2.93;;;10.70;99.90;;;;;;4972994;28;20218;-76
2021/03/12 03:10:26;;;;;;;13.73;2.97;;;10.70;99.90;;;;;;4973198;28;20264;-75
2021/03/12 03:12:54;;;;;;;10.60;3.23;;;10.70;99.90;;;;;;4973070;28;20209;-76
2021/03/12 03:15:24;;;;;;;13.00;2.97;;;10.60;99.90;;;;;;4973348;28;20232;-77
2021/03/12 03:17:52;;;;;;;10.60;3.83;;;10.60;99.90;;;;;;4973163;28;20206;-76
2021/03/12 03:20:20;;;;;;;9.63;3.33;;;10.60;99.90;;;;;;4973666;28;20245;-77
2021/03/12 03:22:47;;;;;;;8.10;3.10;;;10.60;99.90;;;;;;4973032;28;20206;-81
2021/03/12 03:25:14;;;;;;;19.77;4.50;;;10.50;99.90;;;;;;4973322;28;20210;-81
2021/03/12 03:27:42;;;;;;;14.87;4.37;;;10.40;99.90;;;;;;4973253;28;20212;-80
2021/03/12 03:30:10;;;;;;;9.80;3.40;;;10.40;99.90;;;;;;4973043;28;20274;-78
2021/03/12 03:32:37;;;;;;;11.87;2.83;;;10.40;99.90;;;;;;4972744;28;20216;-78
2021/03/12 03:35:05;;;;;;;11.20;2.50;;;10.40;99.90;;;;;;4972696;28;20260;-79
2021/03/12 03:37:33;;;;;;;7.60;3.03;;;10.40;99.90;;;;;;4972834;28;20232;-75
2021/03/12 03:40:00;;;;;;;13.03;3.50;;;10.40;99.90;;;;;;4972362;28;20233;-79
2021/03/12 03:42:30;;;;;;;8.40;2.20;;;10.40;99.90;;;;;;4972955;28;20209;-78
2021/03/12 03:44:58;;;;;;;5.63;3.03;;;10.40;99.90;;;;;;4972157;28;20205;-79
2021/03/12 03:47:27;;;;;;;6.80;2.47;;;10.40;99.90;;;;;;4973124;28;20221;-79
2021/03/12 03:49:54;;;;;;;9.23;2.50;;;10.40;99.90;;;;;;4972256;28;20240;-76
2021/03/12 03:52:21;;;;;;;11.20;3.47;;;10.40;99.90;;;;;;4972754;28;20217;-77
2021/03/12 03:54:51;;;;;;;13.20;3.33;;;10.40;99.90;;;;;;4972839;28;20681;-76
2021/03/12 03:57:18;;;;;;;10.20;3.03;;;10.40;99.90;;;;;;4972850;28;20205;-74
2021/03/12 03:59:46;;;;;;;7.77;3.63;;;10.40;99.90;;;;;;4972795;28;20241;-78
2021/03/12 04:02:15;;;;;;;10.80;3.07;;;10.40;99.90;;;;;;4971734;28;20670;-78
2021/03/12 04:04:45;;;;;;;12.40;3.10;;;10.40;99.90;;;;;;4972257;28;20221;-76
2021/03/12 04:07:12;;;;;;;7.83;3.77;;;10.40;99.90;;;;;;4971887;28;20709;-78
2021/03/12 04:09:39;;;;;;;9.07;2.47;;;10.30;99.90;;;;;;4972417;28;20205;-79
2021/03/12 04:12:08;;;;;;;9.70;2.37;;;10.40;99.90;;;;;;4971624;28;20214;-76
2021/03/12 04:14:36;;;;;;;8.90;2.97;;;10.40;99.90;;;;;;4972854;28;20225;-82
2021/03/12 04:17:03;;;;;;;10.13;3.77;;;10.40;99.90;;;;;;4973899;28;20206;-82
2021/03/12 04:19:31;;;;;;;19.17;4.10;;;10.30;99.90;;;;;;4972235;28;20256;-78
2021/03/12 04:21:59;;;;;;;7.43;2.73;;;10.20;99.90;;;;;;4972196;28;20209;-76
2021/03/12 04:24:26;;;;;;;14.63;3.10;;;10.10;99.90;;;;;;4972142;28;20225;-78
2021/03/12 04:26:53;;;;;;;11.83;3.57;;;10.10;99.90;;;;;;4971983;28;20206;-78
2021/03/12 04:29:21;;;;;;;14.70;2.80;;;10.10;99.90;;;;;;4971969;28;20260;-79
2021/03/12 04:31:47;;;;;;;16.60;3.07;;;10.20;99.90;;;;;;4972665;28;20205;-79
2021/03/12 04:34:14;;;;;;;11.90;3.03;;;10.20;99.90;;;;;;4971655;28;20300;-78
2021/03/12 04:36:41;;;;;;;10.03;2.50;;;10.30;99.90;;;;;;4971992;28;20209;-78
2021/03/12 04:39:08;;;;;;;16.17;4.17;;;10.30;99.90;;;;;;4971290;28;20225;-78
2021/03/12 04:41:35;;;;;;;12.40;3.47;;;10.40;99.90;;;;;;4971557;28;20244;-78
2021/03/12 04:44:03;;;;;;;8.47;2.80;;;10.40;99.90;;;;;;4971554;28;20670;-82
2021/03/12 04:46:32;;;;;;;11.97;2.90;;;10.30;99.90;;;;;;4972221;28;20216;-82
2021/03/12 04:48:58;;;;;;;15.47;3.50;;;10.30;99.90;;;;;;4971656;28;20220;-83
2021/03/12 04:51:25;;;;;;;11.37;2.60;;;10.30;99.90;;;;;;4972078;28;20221;-81
2021/03/12 04:53:52;;;;;;;15.17;3.57;;;10.30;99.90;;;;;;4971523;28;20209;-79
2021/03/12 04:56:19;;;;;;;7.43;2.67;;;10.40;99.90;;;;;;4972474;28;20260;-79
2021/03/12 04:58:46;;;;;;;7.50;2.73;;;10.40;99.90;;;;;;4972333;28;20268;-80
2021/03/12 05:01:13;;;;;;;10.47;3.63;;;10.40;99.90;;;;;;4971551;28;20237;-81
2021/03/12 05:03:41;;;;;;;6.90;4.40;;;10.30;99.90;;;;;;4972066;28;20217;-82
2021/03/12 05:06:09;;;;;;;12.30;2.73;;;10.30;99.90;;;;;;4971461;28;20213;-82
2021/03/12 05:08:38;;;;;;;16.50;3.67;;;10.20;99.90;;;;;;4972170;28;20252;-84
2021/03/12 05:11:07;;;;;;;11.50;2.97;;;10.30;99.90;;;;;;4971771;28;20268;-83
2021/03/12 05:13:33;;;;;;;11.07;2.10;;;10.30;99.90;;;;;;4972289;28;20572;-82
2021/03/12 05:16:00;;;;;;;9.80;3.20;;;10.20;99.90;;;;;;4975215;28;20210;-84
2021/03/12 05:18:27;;;;;;;14.93;3.83;;;10.20;99.90;;;;;;4975703;28;20673;-82
2021/03/12 05:20:55;;;;;;;8.70;2.73;;;10.20;99.90;;;;;;4974928;28;20240;-81
2021/03/12 05:23:23;;;;;;;7.90;2.27;;;10.20;99.90;;;;;;4975971;28;20209;-80
2021/03/12 05:25:50;;;;;;;11.93;2.60;;;10.10;99.90;;;;;;4975518;28;20252;-78
2021/03/12 05:28:17;;;;;;;8.83;2.97;;;10.10;99.90;;;;;;4975761;28;20216;-79
2021/03/12 05:30:44;;;;;;;9.17;2.13;;;10.10;99.90;;;;;;4975334;28;20220;-79
2021/03/12 05:33:11;;;;;;;8.00;3.03;;;10.10;99.90;;;;;;4961282;28;20206;-79
2021/03/12 05:35:37;;;;;;;10.17;2.93;;;10.00;99.90;;;;;;4975323;28;20210;-81
2021/03/12 05:38:05;;;;;;;8.70;3.50;;;10.00;99.90;;;;;;4974754;28;20217;-81
2021/03/12 05:40:31;;;;;;;8.73;2.43;;;10.10;99.90;;;;;;4975017;28;20225;-79
2021/03/12 05:42:59;;;;;;;13.53;2.30;;;10.10;99.90;;;;;;4974373;28;20220;-81
2021/03/12 05:45:33;;;;;;;12.67;2.90;;;10.10;99.90;;;;;;4974570;28;20209;-81
2021/03/12 05:48:00;;;;;;;8.33;2.47;;;10.10;99.90;;;;;;4974766;28;20288;-81
2021/03/12 05:50:27;;;;;;;9.97;2.53;;;10.10;99.90;;;;;;4974854;28;20206;-85
2021/03/12 05:52:55;;;;;;;11.37;2.13;;;10.00;99.90;;;;;;4975245;28;20213;-85
2021/03/12 05:55:23;;;;;;;8.43;2.80;;;10.00;99.90;;;;;;4974716;28;20222;-82
2021/03/12 05:57:50;;;;;;;8.20;3.50;;;10.00;99.90;;;;;;4974896;28;20292;-82
2021/03/12 06:00:18;;;;;;;8.07;2.40;;;10.00;99.90;;;;;;4974981;28;20658;-81
2021/03/12 06:02:44;;;;;;;7.13;2.20;;;9.90;99.90;;;;;;4975046;28;20232;-82
2021/03/12 06:05:12;;;;;;;14.33;2.90;;;9.90;99.90;;;;;;4974610;28;20280;-81
2021/03/12 06:07:39;;;;;;;5.77;2.70;;;9.90;99.90;;;;;;4974613;28;20588;-82
2021/03/12 06:10:08;;;;;;;9.10;2.20;;;9.90;99.90;;;;;;4974445;28;20217;-83
2021/03/12 06:12:36;;;;;;;5.10;3.17;;;9.90;99.90;;;;;;4974677;28;20626;-83
2021/03/12 06:15:04;;;;;;;8.80;1.93;;;10.00;99.90;;;;;;4973848;28;20692;-83
2021/03/12 06:17:39;;;;;;;11.43;3.20;;;10.10;99.90;;;;;;4974508;28;20208;-81
2021/03/12 06:20:09;;;;;;;8.57;2.90;;;9.90;99.90;;;;;;4974354;28;20232;-81
2021/03/12 06:22:36;;;;;;;5.47;2.00;;;9.90;99.90;;;;;;4974401;28;20301;-83
2021/03/12 06:25:14;;;;;;;7.97;2.00;;;9.90;99.90;;;;;;4972323;28;20209;-82
2021/03/12 06:27:42;;;;;;;7.17;2.10;;;10.00;99.90;;;;;;4973612;28;20789;-81
2021/03/12 06:30:10;;;;;;;6.13;1.83;;;10.00;99.90;;;;;;4974121;28;21006;-81
2021/03/12 06:32:43;;;;;;;3.80;1.80;;;10.00;99.90;;;;;;4974107;28;20681;-81
2021/03/12 06:35:12;;;;;;;6.90;1.80;;;10.00;99.90;;;;;;4973896;28;20222;-80
2021/03/12 06:37:40;;;;;;;6.43;2.30;;;10.10;99.90;;;;;;4973700;28;20636;-80
2021/03/12 06:40:19;;;;;;;13.03;2.73;;;10.10;99.90;;;;;;4973309;28;20225;-81
2021/03/12 06:43:07;;;;;;;6.37;2.00;;;10.00;99.90;;;;;;4974643;28;20217;-81
2021/03/12 06:45:53;;;;;;;5.07;1.67;;;10.00;99.90;;;;;;4975086;28;20223;-91
2021/03/12 06:48:21;;;;;;;6.57;1.87;;;10.00;99.90;;;;;;4974843;28;20678;-81
2021/03/12 06:50:49;;;;;;;8.60;2.47;;;10.00;99.90;;;;;;4975438;28;20212;-80
2021/03/12 06:53:24;;;;;;;6.20;2.50;;;10.10;99.90;;;;;;4974980;28;20217;-90
2021/03/12 06:55:51;;;;;;;5.60;2.27;;;10.10;99.90;;;;;;4961802;28;20248;-84
2021/03/12 06:58:19;;;;;;;6.67;1.97;;;10.20;99.90;;;;;;4974714;28;20214;-88
2021/03/12 07:00:48;;;;;;;9.53;2.73;;;10.10;99.90;;;;;;4974786;28;20764;-85
2021/03/12 07:03:25;;;;;;;3.83;1.60;;;10.10;99.90;;;;;;4974633;28;20733;-81
2021/03/12 07:05:58;;;;;;;10.47;2.27;;;10.20;99.90;;;;;;4973836;28;20682;-89
2021/03/12 07:08:32;;;;;;;5.27;1.83;;;10.40;99.90;;;;;;4974342;28;20213;-81
2021/03/12 07:10:59;;;;;;;3.60;1.93;;;10.50;99.90;;;;;;4973647;28;20209;-82
2021/03/12 07:13:28;;;;;;;6.10;1.40;;;10.50;99.90;;;;;;4973335;28;20272;-79
2021/03/12 07:15:56;;;;;;;6.80;1.73;;;10.60;99.90;;;;;;4972764;28;20625;-77
2021/03/12 07:18:24;;;;;;;4.37;2.13;;;11.00;99.90;;;;;;4973705;28;20213;-79
2021/03/12 07:20:51;;;;;;;5.17;1.80;;;11.10;99.90;;;;;;4973349;28;20244;-80
2021/03/12 07:23:23;;;;;;;4.77;1.33;;;11.00;99.90;;;;;;4973875;28;20220;-77
2021/03/12 07:25:51;;;;;;;4.23;1.47;;;11.00;99.90;;;;;;4964653;28;20201;-76
2021/03/12 07:28:21;;;;;;;8.17;2.73;;;11.10;99.90;;;;;;4971860;28;20209;-77
2021/03/12 07:30:50;;;;;;;5.03;1.30;;;11.10;99.90;;;;;;4972140;28;20208;-77
2021/03/12 07:33:20;;;;;;;4.70;1.37;;;11.10;99.90;;;;;;4965930;28;20209;-76
2021/03/12 07:35:47;;;;;;;5.53;1.83;;;11.10;99.90;;;;;;4973125;28;20706;-78
2021/03/12 07:38:15;;;;;;;6.33;2.17;;;11.10;99.90;;;;;;4971533;28;20326;-76
2021/03/12 07:40:41;;;;;;;3.20;1.10;;;11.00;99.90;;;;;;4973049;28;20260;-78
2021/03/12 07:43:09;;;;;;;4.47;1.47;;;10.90;99.90;;;;;;4971861;28;20819;-77
2021/03/12 07:45:38;;;;;;;8.17;2.07;;;10.80;99.90;;;;;;4971011;28;20209;-77
2021/03/12 07:48:06;;;;;;;10.80;2.80;;;10.90;99.90;;;;;;4970720;28;20268;-77
2021/03/12 07:50:36;;;;;;;6.60;2.07;;;11.00;99.90;;;;;;4971723;28;20210;-77
2021/03/12 07:53:03;;;;;;;5.70;1.50;;;11.00;99.90;;;;;;4971691;28;20213;-79
2021/03/12 07:55:51;;;;;;;7.37;2.43;;;11.00;99.90;;;;;;4972494;28;20256;-79
2021/03/12 07:59:06;;;;;;;9.27;2.50;;;11.10;99.90;;;;;;4959189;28;20206;-77
2021/03/12 08:01:48;;;;;;;4.83;2.00;;;11.30;99.90;;;;;;4964522;28;20232;-77
2021/03/12 08:04:29;;;;;;;5.67;1.83;;;11.20;99.90;;;;;;4970993;28;20206;-75
2021/03/12 08:06:57;;;;;;;7.70;1.77;;;11.20;99.90;;;;;;4971947;28;20220;-76
2021/03/12 08:09:34;;;;;;;4.17;2.03;;;11.30;99.90;;;;;;4971140;28;20584;-77
2021/03/12 08:12:01;;;;;;;6.67;2.17;;;11.30;99.90;;;;;;4971533;28;20662;-76
2021/03/12 08:14:27;;;;;;;3.83;1.33;;;11.30;99.90;;;;;;4972333;28;20205;-77
2021/03/12 08:17:19;;;;;;;6.70;1.77;;;11.30;99.90;;;;;;4971570;28;20213;-79
2021/03/12 08:19:49;;;;;;;5.63;2.30;;;11.30;99.90;;;;;;4970696;28;20779;-76
2021/03/12 08:22:43;;;;;;;4.60;1.90;;;11.50;99.90;;;;;;4966388;28;20205;-74
2021/03/12 08:25:11;;;;;;;4.93;1.47;;;11.90;99.90;;;;;;4968449;28;20217;-73
2021/03/12 08:27:39;;;;;;;10.50;1.93;;;12.20;99.90;;;;;;4971361;28;20232;-74
2021/03/12 08:30:07;;;;;;;5.40;1.70;;;12.40;99.90;;;;;;4971630;28;20217;-76
2021/03/12 08:32:42;;;;;;;9.50;1.77;;;12.40;99.90;;;;;;4971891;28;20205;-76
2021/03/12 08:35:38;;;;;;;5.53;1.70;;;12.30;99.90;;;;;;4970027;28;20220;-76
2021/03/12 08:38:26;;;;;;;9.70;3.10;;;12.10;99.90;;;;;;4969335;28;20240;-75
2021/03/12 08:40:57;;;;;;;5.13;1.97;;;12.10;99.90;;;;;;4964615;28;20327;-76
2021/03/12 08:43:26;;;;;;;6.00;2.10;;;12.30;99.90;;;;;;4971683;28;20224;-74
2021/03/12 08:45:54;;;;;;;7.50;1.40;;;12.50;99.90;;;;;;4971573;28;20560;-80
2021/03/12 08:48:21;;;;;;;7.90;1.63;;;12.70;99.90;;;;;;4970894;28;20205;-76
2021/03/12 08:50:53;;;;;;;4.43;1.70;;;12.90;99.90;;;;;;4969444;28;20575;-73
2021/03/12 08:53:20;;;;;;;5.27;2.20;;;12.60;99.90;;;;;;4968073;28;20922;-73
2021/03/12 08:55:49;;;;;;;16.03;6.20;;;12.40;99.90;;;;;;4964545;28;20220;-75
2021/03/12 08:58:17;;;;;;;6.23;1.53;;;12.40;99.90;;;;;;4971545;28;20212;-76
2021/03/12 09:00:44;;;;;;;4.88;1.50;;;12.60;99.90;;;;;;4971089;28;20226;-73
2021/03/12 09:03:19;;;;;;;3.15;1.55;;;12.40;99.90;;;;;;4967776;28;20213;-73
2021/03/12 09:05:47;;;;;;;5.73;1.77;;;12.20;99.90;;;;;;4968275;28;20216;-74
2021/03/12 09:08:14;;;;;;;8.73;2.08;;;12.40;99.90;;;;;;4971082;28;20677;-75
2021/03/12 09:10:42;;;;;;;7.95;2.13;;;12.50;99.90;;;;;;4970171;28;20210;-74
2021/03/12 09:13:19;;;;;;;11.13;2.30;;;12.70;99.90;;;;;;4970494;28;20214;-75
2021/03/12 09:15:47;;;;;;;10.17;1.83;;;12.90;99.90;;;;;;4967494;28;20228;-73
2021/03/12 09:18:15;;;;;;;5.83;1.43;;;13.10;99.90;;;;;;4967205;28;20213;-73
2021/03/12 09:20:43;;;;;;;4.57;1.65;;;13.10;99.90;;;;;;4970106;28;20229;-73
2021/03/12 09:23:10;;;;;;;8.82;2.25;;;13.20;99.90;;;;;;4970093;28;20584;-75
2021/03/12 09:25:37;;;;;;;9.43;2.05;;;13.30;99.90;;;;;;4968711;28;20341;-74
2021/03/12 09:28:08;;;;;;;6.15;2.67;;;13.30;99.90;;;;;;4970836;28;20639;-76
2021/03/12 09:30:37;;;;;;;7.35;2.17;;;13.50;99.90;;;;;;4971141;28;20700;-75
2021/03/12 09:33:05;;;;;;;6.35;2.38;;;14.00;99.90;;;;;;4970836;28;20220;-76
2021/03/12 09:35:40;;;;;;;8.57;2.63;;;14.00;99.90;;;;;;4970356;28;20690;-75
2021/03/12 09:38:07;;;;;;;9.18;5.00;;;15.00;99.90;;;;;;4970501;28;20693;-74
2021/03/12 09:40:37;;;;;;;5.07;2.30;;;15.40;99.90;;;;;;4970921;28;20614;-74
2021/03/12 09:43:06;;;;;;;9.30;2.22;;;15.70;99.90;;;;;;4971254;28;20209;-76
2021/03/12 09:45:32;;;;;;;10.98;2.20;;;16.00;99.90;;;;;;4970041;28;20210;-76
2021/03/12 09:47:59;;;;;;;5.80;1.58;;;16.70;99.90;;;;;;4970999;28;20260;-75
2021/03/12 09:50:27;;;;;;;7.38;1.83;;;17.10;99.90;;;;;;4971223;28;20210;-74
2021/03/12 09:52:55;;;;;;;5.80;1.50;;;17.40;99.90;;;;;;4970527;28;20619;-74
2021/03/12 09:55:22;;;;;;;8.35;4.35;;;17.50;99.90;;;;;;4970334;28;20205;-76
2021/03/12 09:57:49;;;;;;;8.13;2.85;;;16.50;99.90;;;;;;4971225;28;20630;-72
2021/03/12 10:00:25;;;;;;;17.23;7.65;;;16.60;99.90;;;;;;4969926;28;20372;-73
2021/03/12 10:02:56;;;;;;;11.23;5.22;;;16.90;99.90;;;;;;4974468;28;20220;-73
2021/03/12 10:05:24;;;;;;;8.63;3.22;;;16.80;99.90;;;;;;4974241;28;20209;-74
2021/03/12 10:07:51;;;;;;;5.95;2.15;;;16.20;99.90;;;;;;4974558;28;20201;-75
2021/03/12 10:10:23;;;;;;;4.95;2.58;;;17.50;99.90;;;;;;4974135;28;20230;-73
2021/03/12 10:12:51;;;;;;;14.07;5.20;;;17.90;99.90;;;;;;4968227;28;20233;-74
2021/03/12 10:15:19;;;;;;;7.95;3.17;;;17.20;99.90;;;;;;4974562;28;20700;-75
2021/03/12 10:17:47;;;;;;;6.35;2.55;;;16.20;99.90;;;;;;4969744;28;20682;-75
2021/03/12 10:20:23;;;;;;;8.57;3.05;;;15.70;99.90;;;;;;4973541;28;20674;-76
2021/03/12 10:22:51;;;;;;;11.25;3.90;;;15.70;99.90;;;;;;4973042;28;20206;-75
2021/03/12 10:25:20;;;;;;;4.78;2.78;;;16.10;99.90;;;;;;4974764;28;20221;-77
2021/03/12 10:27:48;;;;;;;7.88;3.38;;;17.20;99.90;;;;;;4974321;28;20222;-75
2021/03/12 10:30:16;;;;;;;3.92;2.53;;;16.80;99.90;;;;;;4974101;28;20260;-76
2021/03/12 10:32:45;;;;;;;10.98;2.40;;;16.30;99.90;;;;;;4974032;28;20210;-73
2021/03/12 10:35:22;;;;;;;6.15;2.50;;;16.80;99.90;;;;;;4973882;28;20213;-74
2021/03/12 10:37:49;;;;;;;7.68;3.30;;;16.00;99.90;;;;;;4973293;28;20224;-76
2021/03/12 10:40:16;;;;;;;4.80;1.98;;;15.60;99.90;;;;;;4973635;28;20209;-77
2021/03/12 10:42:43;;;;;;;10.00;3.22;;;15.30;99.90;;;;;;4973359;28;20213;-73
2021/03/12 10:45:11;;;;;;;5.82;2.83;;;15.20;99.90;;;;;;4973475;28;20213;-73
2021/03/12 10:47:37;;;;;;;6.68;2.28;;;15.20;99.90;;;;;;4974105;28;20210;-76
2021/03/12 10:50:21;;;;;;;2.83;1.77;;;15.30;99.90;;;;;;4973050;28;20206;-77
2021/03/12 10:52:48;;;;;;;7.53;2.78;;;15.10;99.90;;;;;;4973510;28;20213;-76
2021/03/12 10:55:16;;;;;;;8.10;3.53;;;14.60;99.90;;;;;;4969501;28;20216;-76
2021/03/12 10:57:47;;;;;;;5.03;2.15;;;14.60;99.90;;;;;;4973685;28;20210;-79
2021/03/12 11:00:17;;;;;;;7.28;2.47;;;14.80;99.90;;;;;;4972943;28;20209;-76
2021/03/12 11:02:44;;;;;;;7.40;1.95;;;15.50;99.90;;;;;;4974023;28;20206;-72
2021/03/12 11:05:12;;;;;;;4.60;2.00;;;15.50;99.90;;;;;;4971661;28;20345;-77
2021/03/12 11:07:40;;;;;;;6.72;2.10;;;15.60;99.90;;;;;;4972572;28;20296;-72
2021/03/12 11:10:07;;;;;;;9.45;3.83;;;15.50;99.90;;;;;;4972284;28;20214;-79
2021/03/12 11:12:42;;;;;;;7.55;3.30;;;15.10;99.90;;;;;;4972511;28;20212;-78
2021/03/12 11:15:10;;;;;;;3.67;1.52;;;14.50;99.90;;;;;;4973000;28;20591;-77
2021/03/12 11:17:39;;;;;;;9.02;2.42;;;14.30;99.90;;;;;;4972980;28;20210;-78
2021/03/12 11:20:07;;;;;;;7.72;1.88;;;14.10;99.90;;;;;;4972707;28;20232;-77
2021/03/12 11:22:34;;;;;;;8.90;1.90;;;14.10;99.90;;;;;;4973057;28;20209;-77
2021/03/12 11:25:01;;;;;;;6.30;2.15;;;14.30;99.90;;;;;;4972983;28;20304;-77
2021/03/12 11:27:31;;;;;;;10.25;3.50;;;14.80;99.90;;;;;;4972927;28;20213;-77
2021/03/12 11:29:58;;;;;;;7.95;3.03;;;14.80;99.90;;;;;;4972993;28;20303;-74
2021/03/12 11:32:25;;;;;;;26.17;12.95;;;14.80;99.90;;;;;;4973326;28;20221;-74
2021/03/12 11:34:53;;;;;;;19.63;8.43;;;15.00;99.90;;;;;;4971365;28;20700;-72
2021/03/12 11:37:20;;;;;;;12.10;5.55;;;15.00;99.90;;;;;;4971612;28;20244;-74
2021/03/12 11:39:46;;;;;;;8.25;3.70;;;14.40;99.90;;;;;;4970785;28;20201;-76
2021/03/12 11:42:14;;;;;;;6.00;2.60;;;14.90;99.90;;;;;;4972274;28;20390;-75
2021/03/12 11:44:40;;;;;;;9.77;3.33;;;14.70;99.90;;;;;;4972800;28;20635;-75
2021/03/12 11:47:06;;;;;;;7.82;2.95;;;14.90;99.90;;;;;;4972183;28;20213;-73
2021/03/12 11:49:33;;;;;;;8.43;3.10;;;15.10;99.90;;;;;;4972323;28;20674;-82
2021/03/12 11:52:00;;;;;;;6.63;2.13;;;15.40;99.90;;;;;;4972240;28;20210;-79
2021/03/12 11:54:27;;;;;;;11.48;5.00;;;15.30;99.90;;;;;;4972777;28;20210;-78
2021/03/12 11:56:53;;;;;;;8.95;2.63;;;15.30;99.90;;;;;;4972289;28;20264;-79
2021/03/12 11:59:21;;;;;;;5.28;1.80;;;14.90;99.90;;;;;;4972885;28;20216;-76
2021/03/12 12:01:47;;;;;;;4.90;1.70;;;14.70;99.90;;;;;;4972804;28;20233;-77
2021/03/12 12:04:14;;;;;;;9.25;3.35;;;14.50;99.90;;;;;;4972008;28;20205;-76
2021/03/12 12:06:40;;;;;;;5.57;2.50;;;14.30;99.90;;;;;;4972639;28;20209;-81
2021/03/12 12:09:07;;;;;;;3.90;2.20;;;14.40;99.90;;;;;;4969758;28;20673;-78
2021/03/12 12:11:33;;;;;;;6.18;2.35;;;14.40;99.90;;;;;;4966814;28;20285;-74
2021/03/12 12:14:00;;;;;;;6.53;2.40;;;14.30;99.90;;;;;;4968232;28;20232;-80
2021/03/12 12:16:27;;;;;;;4.15;2.47;;;14.50;99.90;;;;;;4972327;28;20740;-77
2021/03/12 12:18:55;;;;;;;7.35;1.90;;;14.80;99.90;;;;;;4967373;28;20209;-73
2021/03/12 12:21:22;;;;;;;7.68;2.38;;;14.60;99.90;;;;;;4972279;28;20236;-74
2021/03/12 12:23:48;;;;;;;5.22;1.85;;;15.30;99.90;;;;;;4971873;28;20247;-73
2021/03/12 12:26:15;;;;;;;4.93;1.52;;;15.60;99.90;;;;;;4971629;28;20202;-76
2021/03/12 12:28:41;;;;;;;5.03;2.25;;;15.70;99.90;;;;;;4971966;28;20217;-80
2021/03/12 12:31:08;;;;;;;8.07;1.70;;;15.20;99.90;;;;;;4970872;28;20210;-78
2021/03/12 12:33:35;;;;;;;2.60;1.38;;;14.90;99.90;;;;;;4969845;28;20214;-78
2021/03/12 12:36:01;;;;;;;2.15;1.10;;;15.20;99.90;;;;;;4971384;28;20264;-84
2021/03/12 12:38:28;;;;;;;2.92;1.42;;;15.80;99.90;;;;;;4971863;28;20681;-77
2021/03/12 12:40:54;;;;;;;3.35;1.30;;;15.50;99.90;;;;;;4968725;28;20255;-81
2021/03/12 12:43:21;;;;;;;4.15;1.33;;;15.70;99.90;;;;;;4971741;28;20213;-77
2021/03/12 12:45:47;;;;;;;4.10;1.75;;;15.90;99.90;;;;;;4972246;28;20220;-78
2021/03/12 12:48:14;;;;;;;3.20;1.33;;;16.00;99.90;;;;;;4971186;28;20717;-73
2021/03/12 12:50:41;;;;;;;6.15;1.20;;;16.40;99.90;;;;;;4971598;28;20585;-74